Wood Lake, North Dakota
Current Conditions -  °F | °C
As of 11:55 AM on Thursday 30 Oct 2014 (Local Time) from KDVL Reporting Station
Overcast Overcast  
Wind Chill: 22°   Ceiling: 1700
Heat Index: 34°   Visibility: 10mi
Dew Point: 19°   Wind: 23mph
Humidity: 56%   Direction: 360°N
Pressure: 30.34"   Gusts: 30mph
Location:  47.9248°N, 98.8159°W
Report Text: KDVL 301655Z AUTO 36020G26KT 10SM OVC017 01/M07 A3034 RMK AO1
Loading
Personal Weather Stations






























Interactive Weather Map New forecast layout! Learn more

10-Day Weather Forecast

Advertisements
Track Severe Weather on mobile